Time;durP1;ratioP1;P1;durP2;ratioP2;P2;SDS_P1;SDS_P2;PMS_P1;PMS_P2;Temp;Humidity;BMP_temperature;BMP_pressure;BME280_temperature;BME280_humidity;BME280_pressure;Samples;Min_cycle;Max_cycle;Signal;HPM_P1;HPM_P2
2024/01/17 00:00:58;;;;;;;;;23.50;21.50;;;;;7.09;83.34;99422.44;2094568;28;46189;-66
2024/01/17 00:01:59;;;;;;;;;28.50;24.75;;;;;7.11;83.76;99419.75;2096810;28;46163;-66
2024/01/17 00:02:59;;;;;;;;;29.00;28.80;;;;;7.11;83.66;99409.22;2095473;28;46364;-65
2024/01/17 00:03:59;;;;;;;;;27.75;23.75;;;;;7.09;84.09;99411.91;2096107;28;46320;-66
2024/01/17 00:05:00;;;;;;;;;21.75;20.00;;;;;7.11;84.06;99407.44;2095452;28;46400;-67
2024/01/17 00:06:00;;;;;;;;;27.50;25.75;;;;;7.14;83.84;99406.50;2092191;28;46847;-66
2024/01/17 00:07:00;;;;;;;;;27.75;27.50;;;;;7.15;83.86;99409.09;2094097;28;45972;-66
2024/01/17 00:08:01;;;;;;;;;23.75;23.50;;;;;7.12;83.90;99403.91;2094757;28;46231;-66
2024/01/17 00:09:01;;;;;;;;;23.00;21.75;;;;;7.11;84.29;99398.66;2094321;28;46616;-67
2024/01/17 00:10:02;;;;;;;;;27.25;27.00;;;;;7.18;84.45;99398.44;2089105;28;46122;-66
2024/01/17 00:11:02;;;;;;;;;26.00;24.00;;;;;7.20;83.99;99399.25;2094112;28;46643;-67
2024/01/17 00:12:04;;;;;;;;;26.50;24.00;;;;;7.20;84.25;99401.03;2090981;28;46525;-67
2024/01/17 00:13:04;;;;;;;;;26.60;25.80;;;;;7.19;84.11;99397.53;2091289;28;46479;-66
2024/01/17 00:14:05;;;;;;;;;31.50;25.75;;;;;7.19;84.21;99389.63;2095331;28;46302;-67
2024/01/17 00:15:05;;;;;;;;;26.00;23.75;;;;;7.21;84.18;99400.13;2096336;28;45463;-66
2024/01/17 00:16:06;;;;;;;;;27.00;26.50;;;;;7.24;84.07;99389.47;2096030;28;46329;-66
2024/01/17 00:17:07;;;;;;;;;22.00;21.25;;;;;7.26;84.18;99385.03;2092930;28;46284;-66
2024/01/17 00:18:07;;;;;;;;;25.00;21.00;;;;;7.25;83.70;99386.81;2096257;28;46561;-67
2024/01/17 00:19:07;;;;;;;;;25.25;24.00;;;;;7.27;84.12;99376.22;2096247;28;45740;-67
2024/01/17 00:20:08;;;;;;;;;26.00;25.75;;;;;7.28;84.56;99383.22;2094169;28;46161;-66
2024/01/17 00:21:08;;;;;;;;;25.50;25.50;;;;;7.24;84.45;99373.66;2096240;28;46286;-67
2024/01/17 00:22:09;;;;;;;;;29.00;24.75;;;;;7.20;84.60;99370.25;2096355;28;46681;-66
2024/01/17 00:23:09;;;;;;;;;27.50;25.50;;;;;7.18;84.74;99366.78;2096281;28;45781;-67
2024/01/17 00:24:10;;;;;;;;;24.75;24.25;;;;;7.19;84.99;99367.66;2095705;28;46483;-68
2024/01/17 00:25:11;;;;;;;;;27.00;25.80;;;;;7.23;85.11;99369.28;2095416;28;46755;-67
2024/01/17 00:26:11;;;;;;;;;25.00;25.00;;;;;7.21;84.91;99363.19;2096433;28;46938;-66
2024/01/17 00:27:14;;;;;;;;;24.75;24.25;;;;;7.21;85.14;99368.47;2088546;28;46491;-66
2024/01/17 00:28:14;;;;;;;;;30.60;25.20;;;;;7.22;85.31;99357.00;2092917;28;46033;-67
2024/01/17 00:29:15;;;;;;;;;22.25;21.25;;;;;7.17;85.24;99356.28;2090989;28;46715;-67
2024/01/17 00:30:16;;;;;;;;;26.00;24.75;;;;;7.20;85.22;99351.78;2095635;28;47747;-66
2024/01/17 00:31:16;;;;;;;;;25.25;24.75;;;;;7.04;84.89;99354.00;2095091;28;46653;-66
2024/01/17 00:32:16;;;;;;;;;28.50;25.75;;;;;7.23;85.59;99350.81;2093478;28;45514;-66
2024/01/17 00:33:17;;;;;;;;;24.25;23.00;;;;;7.19;85.76;99349.19;2096269;28;46693;-67
2024/01/17 00:34:17;;;;;;;;;30.00;27.50;;;;;7.25;86.05;99349.03;2094539;28;46879;-67
2024/01/17 00:35:18;;;;;;;;;30.75;25.00;;;;;7.24;85.86;99348.16;2096350;28;45460;-67
2024/01/17 00:36:18;;;;;;;;;22.40;22.40;;;;;7.23;86.06;99353.44;2093829;28;46887;-66
2024/01/17 00:37:19;;;;;;;;;29.00;26.75;;;;;7.21;86.25;99345.59;2094502;28;45180;-67
2024/01/17 00:38:19;;;;;;;;;27.00;26.75;;;;;7.22;86.45;99338.53;2096187;28;45684;-67
2024/01/17 00:39:22;;;;;;;;;30.75;28.00;;;;;7.22;86.46;99335.88;2095320;28;46161;-66
2024/01/17 00:40:24;;;;;;;;;30.00;26.60;;;;;7.30;86.45;99328.63;2095091;28;46842;-67
2024/01/17 00:41:25;;;;;;;;;27.00;25.20;;;;;7.30;86.38;99326.84;2094727;28;46818;-66
2024/01/17 00:42:26;;;;;;;;;29.00;25.00;;;;;7.33;86.67;99323.25;2097541;28;46228;-66
2024/01/17 00:43:26;;;;;;;;;25.40;24.80;;;;;7.35;86.43;99319.63;2097503;28;46649;-67
2024/01/17 00:44:28;;;;;;;;;29.75;26.25;;;;;7.36;86.63;99316.09;2095114;28;46344;-66
2024/01/17 00:45:28;;;;;;;;;24.80;24.80;;;;;7.37;86.99;99314.34;2097653;28;45068;-67
2024/01/17 00:46:28;;;;;;;;;28.00;26.75;;;;;7.37;86.84;99312.56;2097148;28;46605;-66
2024/01/17 00:47:30;;;;;;;;;25.75;23.50;;;;;7.36;86.60;99308.16;2095741;28;46565;-66
2024/01/17 00:48:31;;;;;;;;;30.20;25.80;;;;;7.37;86.90;99312.56;2097019;28;45486;-66
2024/01/17 00:49:31;;;;;;;;;20.00;20.00;;;;;7.36;87.00;99302.03;2097178;28;46221;-66
2024/01/17 00:50:32;;;;;;;;;28.75;25.50;;;;;7.34;86.73;99306.50;2097233;28;46643;-66
2024/01/17 00:51:32;;;;;;;;;25.00;25.00;;;;;7.33;87.24;99302.13;2097401;28;45932;-67
2024/01/17 00:52:32;;;;;;;;;27.00;27.00;;;;;7.34;87.32;99302.06;2096250;28;46069;-66
2024/01/17 00:53:33;;;;;;;;;21.00;19.00;;;;;7.37;87.59;99290.59;2098154;28;46965;-66
2024/01/17 00:54:33;;;;;;;;;28.25;25.75;;;;;7.37;87.58;99303.78;2096593;28;46365;-65
2024/01/17 00:55:33;;;;;;;;;27.00;25.25;;;;;7.38;88.20;99302.88;2095884;28;45967;-67
2024/01/17 00:56:35;;;;;;;;;28.00;27.75;;;;;7.39;87.84;99291.41;2096842;28;45895;-67
2024/01/17 00:57:36;;;;;;;;;27.20;25.60;;;;;7.40;87.89;99295.75;2097635;28;46031;-67
2024/01/17 00:58:36;;;;;;;;;26.75;25.25;;;;;7.41;88.11;99294.00;2095994;28;46173;-68
2024/01/17 00:59:36;;;;;;;;;18.00;18.00;;;;;7.34;88.30;99296.81;2087740;28;46408;-66
2024/01/17 01:00:37;;;;;;;;;27.75;27.75;;;;;7.32;88.79;99298.63;2090936;28;46408;-67
2024/01/17 01:01:37;;;;;;;;;26.25;21.25;;;;;7.30;89.08;99294.31;2096661;28;45103;-66
2024/01/17 01:02:37;;;;;;;;;22.75;21.75;;;;;7.26;89.09;99283.00;2100826;28;46522;-67
2024/01/17 01:03:37;;;;;;;;;30.00;30.00;;;;;7.28;89.30;99282.94;2104512;28;46111;-67
2024/01/17 01:04:38;;;;;;;;;29.50;27.00;;;;;7.24;89.65;99281.28;2097244;28;46350;-66
2024/01/17 01:05:39;;;;;;;;;26.25;26.25;;;;;7.24;89.90;99274.28;2097625;28;46439;-66
2024/01/17 01:06:39;;;;;;;;;29.00;27.40;;;;;7.24;90.26;99271.63;2094142;28;46397;-66
2024/01/17 01:07:40;;;;;;;;;30.25;27.50;;;;;7.25;90.59;99272.50;2096498;28;46950;-66
2024/01/17 01:08:40;;;;;;;;;25.50;23.75;;;;;7.22;90.94;99270.78;2094748;28;45771;-67
2024/01/17 01:09:40;;;;;;;;;28.75;25.25;;;;;7.29;90.60;99256.50;2097419;28;46531;-67
2024/01/17 01:10:41;;;;;;;;;27.50;25.00;;;;;7.32;90.96;99255.53;2097205;28;46444;-67
2024/01/17 01:11:41;;;;;;;;;32.00;27.50;;;;;7.31;91.08;99245.91;2097198;28;46681;-67
2024/01/17 01:12:42;;;;;;;;;25.50;25.00;;;;;7.31;91.02;99248.53;2097281;28;46649;-67
2024/01/17 01:13:42;;;;;;;;;28.00;25.00;;;;;7.31;91.74;99245.91;2097127;28;45670;-67
2024/01/17 01:14:42;;;;;;;;;26.00;25.25;;;;;7.29;92.41;99247.72;2097756;28;45374;-67
2024/01/17 01:15:43;;;;;;;;;26.50;26.00;;;;;7.30;92.68;99244.19;2096162;28;46257;-67
2024/01/17 01:16:43;;;;;;;;;29.75;29.25;;;;;7.31;93.10;99241.50;2095315;28;45605;-67
2024/01/17 01:17:43;;;;;;;;;25.00;24.50;;;;;7.31;92.86;99243.25;2092617;28;45017;-68
2024/01/17 01:18:44;;;;;;;;;29.50;28.75;;;;;7.37;93.03;99236.03;2092991;28;46236;-67
2024/01/17 01:19:44;;;;;;;;;26.75;26.25;;;;;7.41;92.81;99236.78;2097182;28;46193;-67
2024/01/17 01:20:45;;;;;;;;;29.00;26.75;;;;;7.45;92.77;99234.91;2096205;28;46994;-67
2024/01/17 01:21:45;;;;;;;;;34.75;31.75;;;;;7.46;92.42;99234.84;2097127;28;46595;-67
2024/01/17 01:22:45;;;;;;;;;32.00;31.75;;;;;7.47;92.73;99227.78;2094110;28;46823;-67
2024/01/17 01:23:46;;;;;;;;;32.75;28.50;;;;;7.46;92.55;99224.28;2097241;28;46210;-67
2024/01/17 01:24:47;;;;;;;;;27.75;25.50;;;;;7.46;92.74;99220.78;2094276;28;46753;-68
2024/01/17 01:25:47;;;;;;;;;31.25;28.50;;;;;7.49;92.94;99224.19;2097025;28;46415;-66
2024/01/17 01:26:47;;;;;;;;;29.75;27.25;;;;;7.43;93.06;99218.25;2097051;28;46579;-68
2024/01/17 01:27:47;;;;;;;;;30.50;26.00;;;;;7.44;92.94;99212.94;2096519;28;46313;-67
2024/01/17 01:28:48;;;;;;;;;28.25;27.25;;;;;7.36;93.10;99212.31;2090522;28;47066;-67
2024/01/17 01:29:48;;;;;;;;;30.25;30.25;;;;;7.34;93.25;99203.56;2097618;28;46335;-66
2024/01/17 01:30:48;;;;;;;;;27.75;26.50;;;;;7.39;93.20;99204.31;2096718;28;45353;-66
2024/01/17 01:31:49;;;;;;;;;27.50;24.75;;;;;7.40;93.68;99199.88;2094179;28;46557;-67
2024/01/17 01:32:49;;;;;;;;;27.25;24.25;;;;;7.32;93.51;99202.78;2087810;28;46965;-67
2024/01/17 01:33:49;;;;;;;;;31.00;29.25;;;;;7.30;93.85;99197.53;2092277;28;45877;-67
2024/01/17 01:34:50;;;;;;;;;25.00;25.00;;;;;7.35;94.20;99187.69;2094657;28;46755;-66
2024/01/17 01:35:50;;;;;;;;;28.75;28.25;;;;;7.38;94.23;99190.25;2095369;28;46076;-67
2024/01/17 01:36:50;;;;;;;;;28.25;25.75;;;;;7.40;94.42;99192.84;2097108;28;46282;-67
2024/01/17 01:37:51;;;;;;;;;28.25;26.50;;;;;7.40;94.58;99187.56;2095899;28;46166;-67
2024/01/17 01:38:51;;;;;;;;;36.00;32.75;;;;;7.42;94.50;99184.88;2096308;28;46473;-67
2024/01/17 01:39:51;;;;;;;;;36.25;29.00;;;;;7.42;94.87;99184.88;2097148;28;46530;-68
2024/01/17 01:40:52;;;;;;;;;27.75;24.50;;;;;7.40;95.19;99179.63;2095315;28;46156;-67
2024/01/17 01:41:52;;;;;;;;;32.75;27.75;;;;;7.35;95.49;99177.13;2096995;28;46610;-67
2024/01/17 01:42:56;;;;;;;;;28.25;25.00;;;;;7.35;95.89;99177.13;2097475;28;45216;-66
2024/01/17 01:43:56;;;;;;;;;31.40;30.40;;;;;7.33;96.25;99171.06;2097201;28;46922;-68
2024/01/17 01:44:57;;;;;;;;;33.00;28.50;;;;;7.32;96.72;99174.59;2097178;28;46812;-67
2024/01/17 01:46:03;;;;;;;;;27.75;27.75;;;;;7.35;96.82;99168.34;2097180;28;46267;-66
2024/01/17 01:47:03;;;;;;;;;31.00;28.60;;;;;7.33;96.84;99164.91;2096946;28;47010;-67
2024/01/17 01:48:04;;;;;;;;;29.50;22.50;;;;;7.31;97.08;99159.69;2097634;28;45245;-67
2024/01/17 01:49:04;;;;;;;;;32.25;31.25;;;;;7.32;97.09;99163.19;2097118;28;46742;-67
2024/01/17 01:50:05;;;;;;;;;29.75;29.50;;;;;7.33;96.83;99162.28;2096507;28;46628;-67
2024/01/17 01:51:06;;;;;;;;;35.00;28.80;;;;;7.29;96.93;99153.59;2095987;28;46479;-67
2024/01/17 01:52:08;;;;;;;;;33.00;30.00;;;;;7.30;97.32;99157.09;2092442;28;45863;-67
2024/01/17 01:53:09;;;;;;;;;28.80;27.80;;;;;7.28;97.62;99151.03;2097182;28;46509;-68
2024/01/17 01:54:13;;;;;;;;;29.50;26.75;;;;;7.28;97.68;99151.03;2097412;28;46335;-68
2024/01/17 01:55:14;;;;;;;;;29.20;27.60;;;;;7.27;97.60;99144.03;2097530;28;46184;-67
2024/01/17 01:56:24;;;;;;;;;27.00;24.00;;;;;7.32;98.36;99148.22;2096848;28;46605;-66
2024/01/17 01:57:24;;;;;;;;;32.00;30.00;;;;;7.24;98.30;99150.25;2096271;28;45770;-66
2024/01/17 01:58:25;;;;;;;;;29.25;26.00;;;;;7.21;98.69;99142.44;2084389;28;46307;-67
2024/01/17 01:59:25;;;;;;;;;28.75;25.25;;;;;7.22;98.46;99146.78;2097319;28;46082;-68
2024/01/17 02:00:26;;;;;;;;;30.50;29.75;;;;;7.25;98.95;99145.84;2094561;28;46194;-68
2024/01/17 02:01:28;;;;;;;;;32.50;29.00;;;;;7.25;99.46;99132.66;2096325;28;46618;-67
2024/01/17 02:02:29;;;;;;;;;34.80;31.20;;;;;7.25;99.52;99135.28;2097143;28;46732;-67
2024/01/17 02:03:30;;;;;;;;;34.75;28.75;;;;;7.26;99.44;99127.31;2097647;28;46432;-68
2024/01/17 02:04:34;;;;;;;;;33.00;29.00;;;;;7.28;99.71;99124.63;2097415;28;46115;-67
2024/01/17 02:05:35;;;;;;;;;31.40;28.40;;;;;7.24;99.05;99126.53;2096701;28;47266;-67
2024/01/17 02:06:35;;;;;;;;;29.25;29.00;;;;;7.20;99.46;99121.38;2095768;28;46973;-67
2024/01/17 02:07:37;;;;;;;;;29.25;26.50;;;;;7.19;100.00;99120.50;2097146;28;46238;-66
2024/01/17 02:08:37;;;;;;;;;27.80;27.00;;;;;7.23;99.94;99119.50;2095297;28;45826;-66
2024/01/17 02:09:38;;;;;;;;;31.25;30.25;;;;;7.24;99.99;99112.44;2093353;28;46763;-66
2024/01/17 02:10:39;;;;;;;;;33.50;31.75;;;;;7.24;100.00;99115.06;2092144;28;46193;-67
2024/01/17 02:11:40;;;;;;;;;32.00;31.80;;;;;7.19;100.00;99106.47;2094142;28;46712;-67
2024/01/17 02:12:42;;;;;;;;;24.50;24.00;;;;;7.17;100.00;99103.03;2090472;28;45546;-67
2024/01/17 02:13:43;;;;;;;;;31.00;28.60;;;;;7.19;100.00;99103.81;2096906;28;45993;-67
2024/01/17 02:14:44;;;;;;;;;28.20;27.40;;;;;7.25;100.00;99093.94;2096185;28;45979;-68
2024/01/17 02:15:45;;;;;;;;;26.75;25.75;;;;;7.28;100.00;99095.59;2090391;28;46860;-67
2024/01/17 02:16:46;;;;;;;;;30.75;27.00;;;;;7.30;100.00;99086.72;2096954;28;46194;-67
2024/01/17 02:17:46;;;;;;;;;35.80;33.40;;;;;7.31;100.00;99087.56;2095459;28;46131;-67
2024/01/17 02:18:47;;;;;;;;;32.00;30.50;;;;;7.31;100.00;99077.88;2097001;28;45869;-67
2024/01/17 02:19:48;;;;;;;;;33.20;28.80;;;;;7.31;100.00;99075.25;2094425;28;46386;-67
2024/01/17 02:20:48;;;;;;;;;32.50;31.25;;;;;7.33;100.00;99072.56;2096335;28;46436;-68
2024/01/17 02:21:48;;;;;;;;;32.00;31.00;;;;;7.31;100.00;99066.47;2096654;28;46256;-67
2024/01/17 02:22:48;;;;;;;;;29.50;28.00;;;;;7.33;100.00;99062.84;2097041;28;45615;-67
2024/01/17 02:23:50;;;;;;;;;31.75;27.25;;;;;7.33;100.00;99060.22;2097145;28;46745;-66
2024/01/17 02:24:50;;;;;;;;;28.40;23.80;;;;;7.30;100.00;99057.69;2097143;28;46379;-67
2024/01/17 02:25:58;;;;;;;;;29.50;28.25;;;;;7.38;100.00;99052.16;2095679;28;46470;-66
2024/01/17 02:26:59;;;;;;;;;30.00;29.60;;;;;7.38;100.00;99050.38;2096882;28;46558;-67
2024/01/17 02:27:59;;;;;;;;;29.60;29.60;;;;;7.40;100.00;99047.69;2095883;28;45623;-66
2024/01/17 02:29:00;;;;;;;;;34.75;29.75;;;;;7.42;100.00;99045.84;2097091;28;46252;-67
2024/01/17 02:30:01;;;;;;;;;26.75;24.00;;;;;7.43;100.00;99039.66;2097130;28;45329;-66
2024/01/17 02:31:01;;;;;;;;;30.80;29.00;;;;;7.45;100.00;99039.59;2096429;28;45769;-67
2024/01/17 02:32:02;;;;;;;;;35.25;32.50;;;;;7.45;100.00;99031.69;2091810;28;46608;-67
2024/01/17 02:33:03;;;;;;;;;32.75;32.00;;;;;7.47;100.00;99027.19;2096834;28;46630;-67
2024/01/17 02:34:04;;;;;;;;;30.50;26.25;;;;;7.49;100.00;99028.84;2096629;28;45971;-67
2024/01/17 02:35:05;;;;;;;;;30.20;27.40;;;;;7.50;100.00;99021.84;2097248;28;46889;-67
2024/01/17 02:36:05;;;;;;;;;31.50;29.75;;;;;7.48;100.00;99027.13;2096337;28;46665;-67
2024/01/17 02:37:12;;;;;;;;;28.00;27.25;;;;;7.50;100.00;99016.56;2096149;28;46233;-67
2024/01/17 02:38:12;;;;;;;;;31.80;29.60;;;;;7.52;100.00;99015.56;2097096;28;46409;-68
2024/01/17 02:39:15;;;;;;;;;34.00;30.00;;;;;7.54;100.00;99005.81;2094951;28;46311;-67
2024/01/17 02:40:15;;;;;;;;;30.60;27.60;;;;;7.55;100.00;99006.69;2096525;28;46569;-67
2024/01/17 02:41:15;;;;;;;;;28.25;26.00;;;;;7.54;100.00;99007.59;2096795;28;46500;-67
2024/01/17 02:42:15;;;;;;;;;34.50;32.00;;;;;7.55;100.00;99004.03;2095560;28;46226;-66
2024/01/17 02:43:16;;;;;;;;;34.00;33.00;;;;;7.53;100.00;98998.81;2094177;28;46591;-67
2024/01/17 02:44:16;;;;;;;;;31.25;28.00;;;;;7.53;100.00;98997.97;2097454;28;45875;-67
2024/01/17 02:45:16;;;;;;;;;36.00;32.75;;;;;7.55;100.00;99004.03;2096821;28;46321;-67
2024/01/17 02:46:17;;;;;;;;;34.50;30.25;;;;;7.58;100.00;99001.28;2096773;28;46676;-68
2024/01/17 02:47:17;;;;;;;;;33.00;30.75;;;;;7.59;100.00;99000.34;2096617;28;46409;-66
2024/01/17 02:48:17;;;;;;;;;30.50;29.50;;;;;7.59;100.00;99000.34;2096770;28;47125;-66
2024/01/17 02:49:19;;;;;;;;;28.00;26.25;;;;;7.58;100.00;98993.34;2094758;28;45498;-66
2024/01/17 02:50:19;;;;;;;;;27.60;27.20;;;;;7.55;100.00;98996.13;2096064;28;46684;-67
2024/01/17 02:51:20;;;;;;;;;39.25;32.50;;;;;7.58;100.00;98988.06;2097116;28;46593;-67
2024/01/17 02:52:20;;;;;;;;;32.50;29.00;;;;;7.61;100.00;98988.81;2096736;28;46437;-67
2024/01/17 02:53:20;;;;;;;;;34.25;32.00;;;;;7.63;100.00;98986.16;2097145;28;45172;-67
2024/01/17 02:54:21;;;;;;;;;27.75;26.75;;;;;7.63;100.00;98992.28;2096979;28;46606;-67
2024/01/17 02:55:25;;;;;;;;;37.50;32.75;;;;;7.63;100.00;98994.94;2096585;28;46246;-68
2024/01/17 02:56:25;;;;;;;;;29.00;26.40;;;;;7.61;100.00;98985.31;2096795;28;46675;-67
2024/01/17 02:57:25;;;;;;;;;34.25;30.50;;;;;7.56;100.00;98985.50;2096680;28;46202;-67
2024/01/17 02:58:25;;;;;;;;;32.50;32.50;;;;;7.55;100.00;98978.50;2093590;28;46626;-67
2024/01/17 02:59:26;;;;;;;;;33.00;30.75;;;;;7.57;100.00;98981.06;2092891;28;46360;-67
2024/01/17 03:00:26;;;;;;;;;37.75;35.00;;;;;7.57;100.00;98978.44;2095420;28;46193;-67
2024/01/17 03:01:26;;;;;;;;;27.50;25.00;;;;;7.54;100.00;98979.41;2092710;28;46667;-66
2024/01/17 03:02:27;;;;;;;;;30.00;29.75;;;;;7.53;100.00;98979.47;2097461;28;45548;-67
2024/01/17 03:03:27;;;;;;;;;35.75;33.75;;;;;7.51;100.00;98982.19;2096017;28;46651;-66
2024/01/17 03:04:27;;;;;;;;;26.75;23.25;;;;;7.49;100.00;98975.22;2096646;28;46560;-66
2024/01/17 03:05:28;;;;;;;;;31.25;29.75;;;;;7.46;100.00;98973.56;2096781;28;46236;-66
2024/01/17 03:06:28;;;;;;;;;33.50;30.00;;;;;7.46;100.00;98970.91;2096379;28;46864;-67
2024/01/17 03:07:28;;;;;;;;;35.00;33.00;;;;;7.43;100.00;98971.03;2096698;28;47003;-67
2024/01/17 03:08:29;;;;;;;;;36.50;33.75;;;;;7.43;100.00;98957.84;2096189;28;46080;-68
2024/01/17 03:09:29;;;;;;;;;34.50;31.00;;;;;7.41;100.00;98962.31;2095815;28;46526;-66
2024/01/17 03:10:29;;;;;;;;;36.00;32.75;;;;;7.42;100.00;98961.41;2097013;28;45637;-67
2024/01/17 03:11:30;;;;;;;;;35.75;32.00;;;;;7.44;100.00;98961.34;2096442;28;45245;-67
2024/01/17 03:12:30;;;;;;;;;38.00;34.25;;;;;7.41;100.00;98953.53;2096520;28;46292;-66
2024/01/17 03:13:30;;;;;;;;;32.00;29.50;;;;;7.41;100.00;98954.41;2095260;28;46490;-66
2024/01/17 03:14:31;;;;;;;;;31.00;27.75;;;;;7.41;100.00;98951.75;2093946;28;46371;-67
2024/01/17 03:15:31;;;;;;;;;35.25;30.00;;;;;7.41;100.00;98946.47;2095831;28;46212;-66
2024/01/17 03:16:32;;;;;;;;;29.50;29.00;;;;;7.41;100.00;98950.91;2092917;28;47233;-66
2024/01/17 03:17:34;;;;;;;;;35.25;31.25;;;;;7.39;100.00;98945.69;2095891;28;46511;-67
2024/01/17 03:18:37;;;;;;;;;34.60;33.80;;;;;7.37;100.00;98943.09;2089060;28;46723;-67
2024/01/17 03:19:37;;;;;;;;;38.40;32.60;;;;;7.34;100.00;98937.91;2096608;28;46562;-68
2024/01/17 03:20:38;;;;;;;;;33.75;30.25;;;;;7.37;100.00;98936.97;2095351;28;45390;-67
2024/01/17 03:21:44;;;;;;;;;36.25;32.50;;;;;7.42;100.00;98935.00;2096500;28;46738;-67
2024/01/17 03:22:45;;;;;;;;;34.00;30.00;;;;;7.44;100.00;98938.44;2093026;28;46028;-67
2024/01/17 03:23:45;;;;;;;;;34.50;34.25;;;;;7.43;100.00;98935.88;2090374;28;46372;-67
2024/01/17 03:24:45;;;;;;;;;45.00;37.75;;;;;7.44;100.00;98933.16;2096635;28;46395;-66
2024/01/17 03:25:46;;;;;;;;;36.50;31.50;;;;;7.45;100.00;98940.16;2095544;28;46369;-66
2024/01/17 03:26:46;;;;;;;;;42.00;37.25;;;;;7.45;100.00;98932.25;2096864;28;45216;-67
2024/01/17 03:27:46;;;;;;;;;32.00;30.00;;;;;7.45;100.00;98926.09;2096818;28;45525;-66
2024/01/17 03:28:47;;;;;;;;;40.75;36.25;;;;;7.42;100.00;98929.72;2096291;28;45616;-67
2024/01/17 03:29:47;;;;;;;;;34.00;33.25;;;;;7.41;100.00;98921.88;2097005;28;45629;-67
2024/01/17 03:30:48;;;;;;;;;43.75;39.25;;;;;7.41;100.00;98921.88;2096079;28;46364;-67
2024/01/17 03:31:48;;;;;;;;;37.75;35.25;;;;;7.40;100.00;98913.09;2092344;28;46484;-67
2024/01/17 03:32:48;;;;;;;;;33.50;32.00;;;;;7.42;100.00;98915.66;2096363;28;46214;-67
2024/01/17 03:33:49;;;;;;;;;36.50;33.50;;;;;7.43;100.00;98907.69;2094807;28;47184;-67
2024/01/17 03:34:51;;;;;;;;;39.50;35.75;;;;;7.41;100.00;98906.91;2092106;28;46737;-67
2024/01/17 03:35:51;;;;;;;;;34.40;34.40;;;;;7.41;100.00;98892.84;2095162;28;45638;-67
2024/01/17 03:36:52;;;;;;;;;34.50;32.75;;;;;7.42;100.00;98900.69;2095117;28;46103;-67
2024/01/17 03:37:52;;;;;;;;;37.00;35.50;;;;;7.42;100.00;98890.16;2096723;28;46357;-68
2024/01/17 03:38:54;;;;;;;;;40.75;35.50;;;;;7.46;100.00;98898.78;2096262;28;46685;-67
2024/01/17 03:39:54;;;;;;;;;35.20;31.80;;;;;7.46;100.00;98897.00;2096427;28;46655;-67
2024/01/17 03:40:56;;;;;;;;;38.00;35.25;;;;;7.46;100.00;98890.88;2091268;28;46249;-67
2024/01/17 03:41:56;;;;;;;;;36.20;34.40;;;;;7.46;100.00;98882.97;2093031;28;45258;-67
2024/01/17 03:42:56;;;;;;;;;37.75;36.25;;;;;7.46;100.00;98877.69;2096410;28;46500;-67
2024/01/17 03:43:57;;;;;;;;;36.25;34.25;;;;;7.46;100.00;98877.69;2096268;28;46330;-67
2024/01/17 03:44:58;;;;;;;;;37.20;35.60;;;;;7.45;100.00;98875.97;2095959;28;46784;-67
2024/01/17 03:45:58;;;;;;;;;38.50;35.25;;;;;7.43;100.00;98868.09;2096514;28;46413;-66
2024/01/17 03:46:58;;;;;;;;;38.50;35.00;;;;;7.42;100.00;98861.13;2096466;28;45003;-67
2024/01/17 03:47:59;;;;;;;;;38.00;36.25;;;;;7.44;100.00;98863.69;2096331;28;45170;-67
2024/01/17 03:48:59;;;;;;;;;33.25;31.00;;;;;7.44;100.00;98859.28;2096385;28;45954;-68
2024/01/17 03:50:00;;;;;;;;;32.00;32.00;;;;;7.44;100.00;98853.13;2094735;28;46518;-67
2024/01/17 03:51:00;;;;;;;;;37.25;36.00;;;;;7.45;100.00;98861.00;2092891;28;46077;-67
2024/01/17 03:52:00;;;;;;;;;37.75;35.75;;;;;7.45;100.00;98853.06;2092306;28;46144;-67
2024/01/17 03:53:01;;;;;;;;;36.25;35.75;;;;;7.45;100.00;98847.78;2096126;28;48033;-67
2024/01/17 03:54:01;;;;;;;;;32.75;28.50;;;;;7.47;100.00;98845.94;2096201;28;46184;-66
2024/01/17 03:55:01;;;;;;;;;32.00;31.25;;;;;7.47;100.00;98840.66;2096416;28;46495;-67
2024/01/17 03:56:02;;;;;;;;;38.00;35.25;;;;;7.48;100.00;98836.25;2095545;28;47056;-66
2024/01/17 03:57:03;;;;;;;;;38.50;31.50;;;;;7.48;100.00;98830.97;2095151;28;45420;-67
2024/01/17 03:58:04;;;;;;;;;35.40;34.60;;;;;7.49;100.00;98830.91;2096367;28;45876;-67
2024/01/17 03:59:04;;;;;;;;;30.00;25.75;;;;;7.50;100.00;98827.38;2095988;28;46591;-68
2024/01/17 04:00:06;;;;;;;;;35.00;31.00;;;;;7.50;100.00;98824.75;2096318;28;46759;-67
2024/01/17 04:01:06;;;;;;;;;36.80;33.40;;;;;7.50;100.00;98818.59;2096298;28;46526;-67
2024/01/17 04:02:06;;;;;;;;;32.75;32.25;;;;;7.51;100.00;98815.03;2096560;28;47052;-68
2024/01/17 04:03:15;;;;;;;;;28.75;25.75;;;;;7.53;100.00;98813.19;2096733;28;45528;-68
2024/01/17 04:04:16;;;;;;;;;42.60;34.60;;;;;7.53;100.00;98810.56;2093404;28;46386;-67
2024/01/17 04:05:19;;;;;;;;;35.25;30.50;;;;;7.57;100.00;98806.88;2096180;28;46230;-67
2024/01/17 04:06:20;;;;;;;;;33.40;32.00;;;;;7.54;100.00;98810.50;2095417;28;46420;-67
2024/01/17 04:07:20;;;;;;;;;32.75;28.75;;;;;7.55;100.00;98803.44;2092800;28;45818;-68
2024/01/17 04:08:21;;;;;;;;;29.50;29.25;;;;;7.56;100.00;98792.81;2095370;28;46208;-67
2024/01/17 04:09:21;;;;;;;;;37.00;33.00;;;;;7.56;100.00;98795.44;2096390;28;46396;-66
2024/01/17 04:10:21;;;;;;;;;30.00;28.50;;;;;7.56;100.00;98794.59;2096556;28;46572;-67
2024/01/17 04:11:22;;;;;;;;;31.75;30.75;;;;;7.53;100.00;98790.28;2096290;28;46447;-67
2024/01/17 04:12:22;;;;;;;;;37.00;32.50;;;;;7.56;100.00;98781.38;2096236;28;46215;-67
2024/01/17 04:13:22;;;;;;;;;36.50;35.00;;;;;7.57;100.00;98777.81;2096199;28;46482;-67
2024/01/17 04:14:23;;;;;;;;;33.00;32.75;;;;;7.55;100.00;98780.53;2096486;28;46191;-67
2024/01/17 04:15:23;;;;;;;;;33.75;30.50;;;;;7.55;100.00;98774.41;2097870;28;46390;-67
2024/01/17 04:16:24;;;;;;;;;38.00;33.50;;;;;7.54;100.00;98768.25;2097812;28;46666;-67
2024/01/17 04:17:24;;;;;;;;;36.50;32.00;;;;;7.38;100.00;98767.16;2097630;28;46450;-67
2024/01/17 04:18:24;;;;;;;;;32.50;29.75;;;;;7.56;100.00;98768.19;2098005;28;45635;-67
2024/01/17 04:19:25;;;;;;;;;38.25;31.75;;;;;7.62;100.00;98758.25;2097706;28;46081;-67
2024/01/17 04:20:25;;;;;;;;;32.00;28.50;;;;;7.64;100.00;98759.06;2096826;28;45842;-66
2024/01/17 04:21:26;;;;;;;;;37.00;30.50;;;;;7.62;100.00;98752.97;2097520;28;46692;-67
2024/01/17 04:22:26;;;;;;;;;33.25;31.75;;;;;7.63;100.00;98751.19;2096723;28;46229;-67
2024/01/17 04:23:26;;;;;;;;;34.75;29.50;;;;;7.63;100.00;98745.91;2094322;28;46615;-67
2024/01/17 04:24:27;;;;;;;;;30.25;26.50;;;;;7.63;100.00;98738.00;2094277;28;45215;-67
2024/01/17 04:25:27;;;;;;;;;33.25;31.00;;;;;7.62;100.00;98731.84;2093886;28;45499;-67
2024/01/17 04:26:27;;;;;;;;;32.25;31.50;;;;;7.60;100.00;98735.47;2097121;28;46447;-67
2024/01/17 04:27:29;;;;;;;;;32.00;29.25;;;;;7.61;100.00;98729.25;2097900;28;46384;-67
2024/01/17 04:28:29;;;;;;;;;36.20;35.40;;;;;7.58;100.00;98724.09;2098002;28;45628;-66
2024/01/17 04:29:29;;;;;;;;;27.50;27.50;;;;;7.26;100.00;98723.66;2097524;28;46344;-67
2024/01/17 04:30:30;;;;;;;;;35.75;32.50;;;;;7.39;100.00;98716.09;2096468;28;46110;-67
2024/01/17 04:31:31;;;;;;;;;26.00;24.50;;;;;7.43;100.00;98709.78;2095054;28;46353;-67
2024/01/17 04:32:35;;;;;;;;;31.80;31.80;;;;;7.44;100.00;98708.84;2094484;28;47545;-66
2024/01/17 04:33:35;;;;;;;;;33.60;31.20;;;;;7.44;100.00;98708.84;2097253;28;47403;-67
2024/01/17 04:34:37;;;;;;;;;36.25;32.25;;;;;7.50;100.00;98700.69;2097893;28;45994;-67
2024/01/17 04:35:38;;;;;;;;;34.20;33.80;;;;;7.46;100.00;98700.84;2097299;28;46932;-66
2024/01/17 04:36:38;;;;;;;;;36.00;32.25;;;;;7.47;100.00;98698.16;2097404;28;46444;-66
2024/01/17 04:37:39;;;;;;;;;36.75;36.00;;;;;7.49;100.00;98692.81;2096701;28;45962;-67
2024/01/17 04:38:40;;;;;;;;;32.40;30.00;;;;;7.46;100.00;98693.81;2096722;28;46995;-66
2024/01/17 04:39:40;;;;;;;;;35.25;32.75;;;;;7.45;100.00;98694.72;2096575;28;46707;-65
2024/01/17 04:40:40;;;;;;;;;30.50;30.00;;;;;7.46;100.00;98688.53;2092543;28;45716;-66
2024/01/17 04:41:41;;;;;;;;;32.25;31.00;;;;;7.45;100.00;98678.03;2097377;28;46315;-67